createdAt,value
2019-05-02T00:02:13.076Z,12.63
2019-05-02T00:04:42.708Z,15.38
2019-05-02T00:07:14.402Z,14.40
2019-05-02T00:09:48.416Z,12.47
2019-05-02T00:12:17.477Z,12.37
2019-05-02T00:14:47.721Z,18.07
2019-05-02T00:17:20.150Z,14.87
2019-05-02T00:19:49.872Z,15.32
2019-05-02T00:22:21.321Z,18.12
2019-05-02T00:24:51.169Z,15.25
2019-05-02T00:27:20.949Z,14.25
2019-05-02T00:29:53.895Z,15.18
2019-05-02T00:32:22.500Z,16.37
2019-05-02T00:34:53.361Z,12.90
2019-05-02T00:37:24.601Z,13.60
2019-05-02T00:39:54.425Z,17.30
2019-05-02T00:42:24.214Z,21.25
2019-05-02T00:44:53.948Z,21.33
2019-05-02T00:47:25.295Z,12.58
2019-05-02T00:49:54.998Z,15.95
2019-05-02T00:52:24.638Z,13.85
2019-05-02T00:54:55.051Z,17.42
2019-05-02T00:57:25.668Z,15.98
2019-05-02T00:59:55.304Z,14.03
2019-05-02T01:02:27.503Z,14.50
2019-05-02T01:04:59.316Z,15.08
2019-05-02T01:07:28.508Z,14.83
2019-05-02T01:09:58.116Z,17.42
2019-05-02T01:12:27.954Z,15.88
2019-05-02T01:14:57.532Z,19.60
2019-05-02T01:17:30.992Z,16.45
2019-05-02T01:19:58.285Z,17.32
2019-05-02T01:22:28.196Z,15.32
2019-05-02T01:24:57.747Z,13.72
2019-05-02T01:27:35.996Z,14.95
2019-05-02T01:30:17.086Z,11.65
2019-05-02T01:32:48.471Z,13.45
2019-05-02T01:35:22.351Z,15.43
2019-05-02T01:38:10.066Z,14.98
2019-05-02T01:40:39.712Z,16.50
2019-05-02T01:43:25.328Z,18.50
2019-05-02T01:45:55.390Z,14.33
2019-05-02T01:48:25.647Z,13.83
2019-05-02T01:50:55.433Z,14.73
2019-05-02T01:53:29.405Z,14.20
2019-05-02T01:55:57.256Z,14.30
2019-05-02T01:58:27.561Z,18.00
2019-05-02T02:00:57.064Z,17.65
2019-05-02T02:03:26.774Z,18.75
2019-05-02T02:05:56.419Z,18.20
2019-05-02T02:08:27.400Z,18.75
2019-05-02T02:10:58.275Z,15.75
2019-05-02T02:13:31.386Z,15.65
2019-05-02T02:16:04.464Z,17.42
2019-05-02T02:18:33.116Z,14.30
2019-05-02T02:21:25.671Z,17.02
2019-05-02T02:23:55.219Z,17.25
2019-05-02T02:26:25.634Z,16.57
2019-05-02T02:28:55.281Z,17.67
2019-05-02T02:31:24.854Z,19.37
2019-05-02T02:33:54.630Z,18.60
2019-05-02T02:36:31.525Z,17.52
2019-05-02T02:38:55.423Z,17.95
2019-05-02T02:41:25.070Z,19.95
2019-05-02T02:44:03.033Z,15.20
2019-05-02T02:46:37.859Z,13.70
2019-05-02T02:49:05.989Z,14.07
2019-05-02T02:51:35.575Z,13.00
2019-05-02T02:54:05.812Z,15.08
2019-05-02T02:56:40.408Z,16.67
2019-05-02T02:59:07.099Z,16.67
2019-05-02T03:01:36.908Z,16.50
2019-05-02T03:04:09.114Z,15.45
2019-05-02T03:06:38.419Z,14.73
2019-05-02T03:09:09.214Z,19.15
2019-05-02T03:11:49.471Z,14.65
2019-05-02T03:14:23.330Z,15.08
2019-05-02T03:16:52.851Z,16.40
2019-05-02T03:19:23.138Z,14.83
2019-05-02T03:22:00.317Z,15.32
2019-05-02T03:24:26.444Z,14.05
2019-05-02T03:26:58.339Z,19.52
2019-05-02T03:29:39.700Z,17.52
2019-05-02T03:32:13.506Z,18.15
2019-05-02T03:34:45.553Z,15.25
2019-05-02T03:37:10.715Z,19.92
2019-05-02T03:39:35.087Z,18.55
2019-05-02T03:42:05.111Z,19.12
2019-05-02T03:44:35.950Z,20.72
2019-05-02T03:47:05.568Z,18.02
2019-05-02T03:49:40.964Z,21.10
2019-05-02T03:52:06.456Z,18.98
2019-05-02T03:54:48.441Z,23.07
2019-05-02T03:57:07.884Z,20.97
2019-05-02T03:59:39.401Z,19.27
2019-05-02T04:02:14.000Z,18.35
2019-05-02T04:04:40.972Z,20.00
2019-05-02T04:07:10.815Z,19.35
2019-05-02T04:09:42.504Z,17.82
2019-05-02T04:12:18.689Z,15.70
2019-05-02T04:14:43.381Z,17.55
2019-05-02T04:17:12.951Z,13.88
2019-05-02T04:19:43.537Z,14.90
2019-05-02T04:22:14.750Z,17.40
2019-05-02T04:24:47.809Z,15.43
2019-05-02T04:27:16.107Z,15.72
2019-05-02T04:29:46.695Z,19.75
2019-05-02T04:32:16.325Z,17.37
2019-05-02T04:34:48.839Z,15.58
2019-05-02T04:37:17.098Z,14.33
2019-05-02T04:39:49.066Z,16.23
2019-05-02T04:42:22.067Z,18.07
2019-05-02T04:45:11.709Z,21.12
2019-05-02T04:47:21.781Z,18.73
2019-05-02T04:49:52.267Z,21.77
2019-05-02T04:52:21.996Z,26.50
2019-05-02T04:54:51.619Z,22.45
2019-05-02T04:57:27.157Z,20.82
2019-05-02T05:00:02.379Z,17.10
2019-05-02T05:02:31.085Z,17.27
2019-05-02T05:04:55.001Z,15.98
2019-05-02T05:07:24.560Z,20.10
2019-05-02T05:09:58.226Z,17.80
2019-05-02T05:12:25.385Z,21.20
2019-05-02T05:14:55.011Z,24.98
2019-05-02T05:17:25.192Z,20.90
2019-05-02T05:19:57.388Z,25.35
2019-05-02T05:22:28.357Z,18.77
2019-05-02T05:25:02.661Z,20.95
2019-05-02T05:27:32.225Z,20.82
2019-05-02T05:30:08.412Z,16.27
2019-05-02T05:32:33.024Z,20.80
2019-05-02T05:35:03.277Z,20.85
2019-05-02T05:37:33.913Z,20.00
2019-05-02T05:40:04.849Z,20.20
2019-05-02T05:42:34.425Z,31.07
2019-05-02T05:45:09.743Z,21.50
2019-05-02T05:47:37.825Z,21.42
2019-05-02T05:50:08.687Z,18.10
2019-05-02T05:52:42.265Z,19.52
2019-05-02T05:55:12.722Z,19.73
2019-05-02T05:57:40.692Z,23.07
2019-05-02T06:00:15.575Z,21.48
2019-05-02T06:02:52.821Z,22.52
2019-05-02T06:05:13.504Z,27.82
2019-05-02T06:07:44.918Z,38.88
2019-05-02T06:10:14.417Z,40.20
2019-05-02T06:12:44.182Z,28.32
2019-05-02T06:15:14.381Z,24.40
2019-05-02T06:17:43.985Z,27.13
2019-05-02T06:20:13.928Z,23.15
2019-05-02T06:22:43.491Z,26.87
2019-05-02T06:25:13.418Z,27.82
2019-05-02T06:27:43.131Z,24.57
2019-05-02T06:30:13.184Z,24.15
2019-05-02T06:32:43.817Z,21.87
2019-05-02T06:35:17.046Z,19.45
2019-05-02T06:37:50.112Z,17.85
2019-05-02T06:40:17.116Z,18.90
2019-05-02T06:42:46.712Z,22.62
2019-05-02T06:45:16.640Z,18.90
2019-05-02T06:47:46.324Z,18.27
2019-05-02T06:50:16.271Z,24.30
2019-05-02T06:52:45.998Z,20.23
2019-05-02T06:55:15.721Z,19.52
2019-05-02T06:57:45.356Z,19.98
2019-05-02T07:00:15.752Z,18.17
2019-05-02T07:02:45.395Z,21.05
2019-05-02T07:05:15.220Z,25.43
2019-05-02T07:07:44.996Z,21.68
2019-05-02T07:10:14.680Z,24.35
2019-05-02T07:12:46.194Z,25.70
2019-05-02T07:15:38.573Z,27.10
2019-05-02T07:18:10.759Z,34.13
2019-05-02T07:20:42.563Z,32.85
2019-05-02T07:23:16.165Z,36.68
2019-05-02T07:25:45.281Z,30.92
2019-05-02T07:28:14.956Z,26.62
2019-05-02T07:30:44.602Z,19.12
2019-05-02T07:33:14.232Z,30.85
2019-05-02T07:35:43.882Z,23.35
2019-05-02T07:38:13.689Z,20.30
2019-05-02T07:40:43.434Z,32.33
2019-05-02T07:43:19.205Z,17.32
2019-05-02T07:45:45.456Z,18.87
2019-05-02T07:48:17.841Z,17.07
2019-05-02T07:50:48.181Z,18.30
2019-05-02T07:53:18.136Z,15.48
2019-05-02T07:55:49.248Z,16.00
2019-05-02T07:58:19.185Z,13.72
2019-05-02T08:00:48.931Z,22.05
2019-05-02T08:03:18.608Z,22.00
2019-05-02T08:05:48.247Z,17.52
2019-05-02T08:08:17.877Z,17.45
2019-05-02T08:10:47.451Z,19.17
2019-05-02T08:13:17.747Z,16.02
2019-05-02T08:15:50.810Z,37.30
2019-05-02T08:18:18.732Z,16.70
2019-05-02T08:20:51.045Z,20.05
2019-05-02T08:23:20.439Z,16.17
2019-05-02T08:25:50.839Z,16.87
2019-05-02T08:28:22.225Z,15.75
2019-05-02T08:30:55.991Z,17.07
2019-05-02T08:33:29.264Z,20.63
2019-05-02T08:35:56.800Z,16.62
2019-05-02T08:38:26.339Z,18.70
2019-05-02T08:40:55.941Z,15.40
2019-05-02T08:43:25.647Z,15.35
2019-05-02T08:45:55.290Z,21.45
2019-05-02T08:48:25.072Z,14.75
2019-05-02T08:50:54.650Z,18.40
2019-05-02T08:53:24.291Z,18.73
2019-05-02T08:55:54.084Z,19.27
2019-05-02T08:58:23.772Z,19.48
2019-05-02T09:00:53.409Z,20.32
2019-05-02T09:03:23.023Z,25.60
2019-05-02T09:06:04.642Z,20.95
2019-05-02T09:08:24.348Z,17.90
2019-05-02T09:10:53.920Z,17.40
2019-05-02T09:13:27.135Z,22.70
2019-05-02T09:15:54.730Z,19.57
2019-05-02T09:18:30.097Z,24.10
2019-05-02T09:20:56.683Z,21.12
2019-05-02T09:23:27.569Z,20.40
2019-05-02T09:25:57.893Z,17.73
2019-05-02T09:28:27.383Z,18.92
2019-05-02T09:31:01.775Z,19.25
2019-05-02T09:33:28.297Z,17.48
2019-05-02T09:35:57.865Z,16.20
2019-05-02T09:38:27.504Z,18.37
2019-05-02T09:40:57.085Z,16.32
2019-05-02T09:43:29.394Z,15.58
2019-05-02T09:45:57.769Z,16.60
2019-05-02T09:48:27.328Z,16.50
2019-05-02T09:50:58.186Z,20.88
2019-05-02T09:53:28.075Z,18.15
2019-05-02T09:55:58.122Z,17.30
2019-05-02T09:58:27.877Z,15.38
2019-05-02T10:01:02.099Z,15.23
2019-05-02T10:03:32.100Z,14.80
2019-05-02T10:06:03.101Z,16.75
2019-05-02T10:08:38.258Z,18.62
2019-05-02T10:11:05.386Z,16.90
2019-05-02T10:13:35.914Z,16.05
2019-05-02T10:16:05.645Z,16.20
2019-05-02T10:18:35.244Z,17.35
2019-05-02T10:21:07.845Z,16.87
2019-05-02T10:23:36.790Z,13.50
2019-05-02T10:26:06.534Z,13.40
2019-05-02T10:28:36.141Z,13.60
2019-05-02T10:31:06.173Z,13.48
2019-05-02T10:33:37.633Z,13.35
2019-05-02T10:36:11.968Z,13.88
2019-05-02T10:38:38.405Z,9.58
2019-05-02T10:41:09.089Z,12.60
2019-05-02T10:43:38.881Z,11.78
2019-05-02T10:46:12.432Z,10.85
2019-05-02T10:48:43.143Z,15.50
2019-05-02T10:51:26.436Z,12.45
2019-05-02T10:53:56.751Z,15.65
2019-05-02T10:56:26.373Z,12.10
2019-05-02T10:58:55.910Z,16.82
2019-05-02T11:01:27.349Z,12.60
2019-05-02T11:03:58.621Z,14.33
2019-05-02T11:06:28.288Z,12.15
2019-05-02T11:08:57.873Z,14.98
2019-05-02T11:11:27.502Z,11.95
2019-05-02T11:14:05.829Z,13.68
2019-05-02T11:16:56.896Z,13.40
2019-05-02T11:19:44.457Z,6.70
2019-05-02T11:22:14.267Z,6.37
2019-05-02T11:24:43.900Z,6.40
2019-05-02T11:27:13.719Z,6.90
2019-05-02T11:29:43.508Z,8.23
2019-05-02T11:32:13.142Z,7.55
2019-05-02T11:34:42.661Z,8.58
2019-05-02T11:37:12.327Z,8.58
2019-05-02T11:39:46.318Z,5.53
2019-05-02T11:42:13.273Z,8.50
2019-05-02T11:44:42.821Z,6.60
2019-05-02T11:47:12.705Z,9.15
2019-05-02T11:49:46.708Z,6.90
2019-05-02T11:52:13.767Z,8.38
2019-05-02T11:54:46.843Z,9.95
2019-05-02T11:57:14.645Z,8.85
2019-05-02T11:59:45.272Z,10.35
2019-05-02T12:02:18.772Z,11.95
2019-05-02T12:04:54.277Z,11.48
2019-05-02T12:07:19.212Z,13.03
2019-05-02T12:09:52.073Z,10.25
2019-05-02T12:12:20.319Z,12.88
2019-05-02T12:14:49.941Z,9.33
2019-05-02T12:17:21.679Z,10.43
2019-05-02T12:19:52.321Z,7.30
2019-05-02T12:22:23.129Z,8.48
2019-05-02T12:24:52.685Z,16.05
2019-05-02T12:27:22.310Z,15.03
2019-05-02T12:29:58.018Z,17.37
2019-05-02T12:32:23.205Z,15.38
2019-05-02T12:34:53.055Z,17.20
2019-05-02T12:37:22.606Z,16.82
2019-05-02T12:39:52.149Z,22.00
2019-05-02T12:42:23.967Z,13.90
2019-05-02T12:44:54.043Z,17.00
2019-05-02T12:47:23.613Z,21.05
2019-05-02T12:49:53.254Z,17.05
2019-05-02T12:52:22.825Z,13.13
2019-05-02T12:54:53.449Z,14.45
2019-05-02T12:57:23.113Z,12.73
2019-05-02T12:59:52.740Z,13.53
2019-05-02T13:02:38.932Z,15.00
2019-05-02T13:05:08.671Z,15.28
2019-05-02T13:07:42.823Z,15.83
2019-05-02T13:10:11.860Z,16.27
2019-05-02T13:12:43.144Z,18.45
2019-05-02T13:15:13.114Z,15.20
2019-05-02T13:17:48.517Z,17.73
2019-05-02T13:20:16.118Z,18.20
2019-05-02T13:23:03.573Z,15.95
2019-05-02T13:25:36.875Z,17.45
2019-05-02T13:28:04.399Z,16.62
2019-05-02T13:30:42.677Z,12.73
2019-05-02T13:33:08.941Z,16.73
2019-05-02T13:35:42.095Z,18.02
2019-05-02T13:38:12.978Z,16.05
2019-05-02T13:40:43.466Z,13.95
2019-05-02T13:43:13.110Z,14.90
2019-05-02T13:45:44.791Z,14.43
2019-05-02T13:48:14.412Z,18.10
2019-05-02T13:50:44.114Z,14.60
2019-05-02T13:53:14.064Z,11.75
2019-05-02T13:55:52.367Z,16.73
2019-05-02T13:58:28.889Z,20.45
2019-05-02T14:00:53.573Z,17.75
2019-05-02T14:03:23.713Z,14.73
2019-05-02T14:05:53.914Z,11.63
2019-05-02T14:08:27.543Z,18.57
2019-05-02T14:11:01.923Z,19.23
2019-05-02T14:13:31.778Z,10.30
2019-05-02T14:16:02.283Z,12.18
2019-05-02T14:18:33.574Z,10.65
2019-05-02T14:21:03.504Z,7.33
2019-05-02T14:23:33.057Z,12.20
2019-05-02T14:26:02.962Z,12.63
2019-05-02T14:28:36.249Z,10.88
2019-05-02T14:31:03.850Z,14.05
2019-05-02T14:33:34.984Z,12.70
2019-05-02T14:36:04.881Z,11.73
2019-05-02T14:38:34.581Z,7.28
2019-05-02T14:41:12.563Z,14.00
2019-05-02T14:43:53.958Z,13.72
2019-05-02T14:46:28.994Z,10.28
2019-05-02T14:48:56.672Z,9.53
2019-05-02T14:51:27.894Z,10.32
2019-05-02T14:54:02.658Z,10.43
2019-05-02T14:56:47.959Z,7.87
2019-05-02T14:59:19.854Z,6.03
2019-05-02T15:01:52.584Z,7.60
2019-05-02T15:04:22.680Z,9.43
2019-05-02T15:06:52.776Z,4.90
2019-05-02T15:09:26.620Z,3.98
2019-05-02T15:11:59.412Z,5.15
2019-05-02T15:14:32.661Z,5.75
2019-05-02T15:17:02.847Z,4.37
2019-05-02T15:19:33.126Z,4.12
2019-05-02T15:22:03.078Z,5.35
2019-05-02T15:24:37.361Z,9.35
2019-05-02T15:27:11.967Z,7.55
2019-05-02T15:29:36.376Z,8.35
2019-05-02T15:32:14.793Z,6.95
2019-05-02T15:34:52.534Z,7.45
2019-05-02T15:37:25.708Z,6.60
2019-05-02T15:42:25.791Z,6.15
2019-05-02T15:44:57.206Z,8.53
2019-05-02T15:47:26.648Z,7.70
2019-05-02T15:49:56.279Z,6.90
2019-05-02T15:52:30.044Z,7.22
2019-05-02T15:55:03.574Z,5.05
2019-05-02T15:57:38.125Z,6.35
2019-05-02T16:00:03.164Z,7.70
2019-05-02T16:02:34.456Z,9.90
2019-05-02T16:05:07.782Z,10.18
2019-05-02T16:07:38.175Z,7.62
2019-05-02T16:10:13.152Z,8.63
2019-05-02T16:12:44.624Z,6.45
2019-05-02T16:15:21.266Z,10.25
2019-05-02T16:17:45.863Z,4.70
2019-05-02T16:20:24.021Z,5.85
2019-05-02T16:22:53.844Z,12.13
2019-05-02T16:25:26.047Z,6.60
2019-05-02T16:27:57.521Z,4.50
2019-05-02T16:30:27.247Z,6.65
2019-05-02T16:32:58.727Z,7.72
2019-05-02T16:35:33.875Z,7.10
2019-05-02T16:38:04.095Z,6.22
2019-05-02T16:40:34.871Z,7.28
2019-05-02T16:43:05.077Z,8.58
2019-05-02T16:45:34.673Z,7.58
2019-05-02T16:48:04.969Z,8.63
2019-05-02T16:50:36.720Z,5.62
2019-05-02T16:53:05.847Z,8.73
2019-05-02T16:55:35.453Z,6.70
2019-05-02T16:58:07.230Z,11.93
2019-05-02T17:00:41.314Z,8.63
2019-05-02T17:03:09.008Z,11.65
2019-05-02T17:05:39.496Z,15.05
2019-05-02T17:08:29.931Z,17.15
2019-05-02T17:11:02.009Z,10.48
2019-05-02T17:13:32.920Z,8.88
2019-05-02T17:16:04.877Z,5.72
2019-05-02T17:18:34.610Z,7.40
2019-05-02T17:21:04.824Z,8.18
2019-05-02T17:23:37.604Z,5.67
2019-05-02T17:26:05.759Z,6.90
2019-05-02T17:28:37.964Z,7.97
2019-05-02T17:31:10.848Z,9.60
2019-05-02T17:33:38.956Z,6.53
2019-05-02T17:36:08.526Z,6.62
2019-05-02T17:38:38.721Z,6.67
2019-05-02T17:41:08.256Z,5.80
2019-05-02T17:43:42.150Z,15.43
2019-05-02T17:46:12.582Z,14.73
2019-05-02T17:48:42.888Z,8.50
2019-05-02T17:51:14.328Z,6.22
2019-05-02T17:53:49.583Z,7.20
2019-05-02T17:56:20.570Z,7.00
2019-05-02T17:58:54.101Z,5.35
2019-05-02T18:01:21.763Z,8.40
2019-05-02T18:03:52.055Z,6.62
2019-05-02T18:06:32.481Z,9.80
2019-05-02T18:08:55.469Z,6.12
2019-05-02T18:11:29.579Z,8.35
2019-05-02T18:13:57.193Z,7.45
2019-05-02T18:16:29.447Z,6.33
2019-05-02T18:19:01.755Z,7.00
2019-05-02T18:21:32.424Z,5.37
2019-05-02T18:24:05.939Z,9.55
2019-05-02T18:26:33.455Z,7.70
2019-05-02T18:29:06.991Z,7.60
2019-05-02T18:31:40.109Z,7.58
2019-05-02T18:34:14.369Z,6.00
2019-05-02T18:36:41.702Z,8.60
2019-05-02T18:39:13.017Z,6.42
2019-05-02T18:41:46.378Z,8.95
2019-05-02T18:44:17.037Z,8.15
2019-05-02T18:49:53.809Z,5.40
2019-05-02T18:52:35.127Z,6.28
2019-05-02T18:54:54.829Z,5.10
2019-05-02T18:57:26.074Z,6.33
2019-05-02T18:59:56.525Z,6.00
2019-05-02T19:02:34.077Z,5.75
2019-05-02T19:04:58.656Z,4.45
2019-05-02T19:07:33.175Z,6.72
2019-05-02T19:10:04.272Z,8.28
2019-05-02T19:12:32.596Z,11.48
2019-05-02T19:15:03.225Z,8.93
2019-05-02T19:17:38.367Z,8.30
2019-05-02T19:20:29.665Z,6.33
2019-05-02T19:22:59.442Z,9.85
2019-05-02T19:25:28.992Z,7.83
2019-05-02T19:28:03.242Z,6.67
2019-05-02T19:30:42.265Z,9.58
2019-05-02T19:33:12.217Z,7.67
2019-05-02T19:35:43.284Z,6.97
2019-05-02T19:38:17.098Z,8.93
2019-05-02T19:40:44.368Z,7.08
2019-05-02T19:43:14.785Z,7.58
2019-05-02T19:45:45.718Z,7.30
2019-05-02T19:48:15.972Z,6.58
2019-05-02T19:50:46.088Z,5.78
2019-05-02T19:53:18.335Z,6.72
2019-05-02T19:55:47.224Z,7.30
2019-05-02T19:58:16.959Z,7.35
2019-05-02T20:00:46.755Z,7.87
2019-05-02T20:03:21.747Z,7.83
2019-05-02T20:05:51.760Z,9.73
2019-05-02T20:08:24.346Z,7.75
2019-05-02T20:10:56.738Z,6.40
2019-05-02T20:13:28.089Z,6.40
2019-05-02T20:16:04.486Z,7.87
2019-05-02T20:18:36.790Z,3.58
2019-05-02T20:21:23.393Z,8.20
2019-05-02T20:23:45.173Z,5.97
2019-05-02T20:26:17.163Z,6.78
2019-05-02T20:28:46.763Z,8.13
2019-05-02T20:31:16.406Z,4.50
2019-05-02T20:33:45.853Z,8.28
2019-05-02T20:36:15.587Z,8.30
2019-05-02T20:38:45.142Z,6.17
2019-05-02T20:41:14.836Z,6.90
2019-05-02T20:43:45.038Z,5.70
2019-05-02T20:46:14.733Z,6.95
2019-05-02T20:48:44.343Z,4.75
2019-05-02T20:51:13.903Z,6.25
2019-05-02T20:53:43.534Z,8.60
2019-05-02T20:56:14.510Z,4.92
2019-05-02T20:58:44.313Z,7.50
2019-05-02T21:01:13.944Z,10.72
2019-05-02T21:03:43.633Z,6.75
2019-05-02T21:06:20.712Z,6.03
2019-05-02T21:09:07.052Z,6.55
2019-05-02T21:11:37.779Z,6.15
2019-05-02T21:14:07.316Z,7.60
2019-05-02T21:16:36.883Z,6.03
2019-05-02T21:19:07.457Z,4.85
2019-05-02T21:21:40.064Z,6.55
2019-05-02T21:24:09.162Z,7.25
2019-05-02T21:26:42.001Z,5.35
2019-05-02T21:29:12.158Z,3.42
2019-05-02T21:31:42.532Z,9.65
2019-05-02T21:34:13.436Z,5.28
2019-05-02T21:36:43.143Z,4.30
2019-05-02T21:39:13.060Z,8.88
2019-05-02T21:41:42.816Z,6.05
2019-05-02T21:44:13.185Z,6.12
2019-05-02T21:46:43.006Z,7.47
2019-05-02T21:49:14.199Z,9.53
2019-05-02T21:51:48.310Z,8.93
2019-05-02T21:54:23.231Z,9.65
2019-05-02T21:56:55.428Z,6.37
2019-05-02T21:59:25.057Z,5.58
2019-05-02T22:01:56.357Z,4.35
2019-05-02T22:04:26.034Z,4.65
2019-05-02T22:06:55.847Z,9.73
2019-05-02T22:09:25.457Z,8.55
2019-05-02T22:11:54.946Z,3.60
2019-05-02T22:14:24.726Z,6.62
2019-05-02T22:16:54.310Z,5.22
2019-05-02T22:19:24.021Z,5.00
2019-05-02T22:21:53.544Z,6.53
2019-05-02T22:24:23.252Z,5.42
2019-05-02T22:26:53.021Z,10.18
2019-05-02T22:29:22.584Z,9.68
2019-05-02T22:31:54.475Z,8.73
2019-05-02T22:34:23.343Z,10.72
2019-05-02T22:36:54.318Z,10.00
2019-05-02T22:39:35.495Z,10.32
2019-05-02T22:42:05.411Z,11.08
2019-05-02T22:44:35.176Z,7.40
2019-05-02T22:47:04.980Z,9.95
2019-05-02T22:49:34.641Z,7.33
2019-05-02T22:52:04.354Z,11.38
2019-05-02T22:54:34.066Z,7.72
2019-05-02T22:57:03.874Z,8.68
2019-05-02T22:59:33.565Z,7.37
2019-05-02T23:02:03.272Z,8.98
2019-05-02T23:04:32.932Z,9.08
2019-05-02T23:07:02.577Z,9.60
2019-05-02T23:09:32.126Z,6.87
2019-05-02T23:12:02.839Z,15.13
2019-05-02T23:14:33.692Z,9.03
2019-05-02T23:17:03.325Z,10.32
2019-05-02T23:19:32.912Z,11.45
2019-05-02T23:22:02.519Z,16.27
2019-05-02T23:24:38.753Z,12.43
2019-05-02T23:27:23.623Z,10.08
2019-05-02T23:29:53.251Z,9.08
2019-05-02T23:32:23.895Z,8.90
2019-05-02T23:34:53.545Z,8.58
2019-05-02T23:37:23.210Z,10.48
2019-05-02T23:39:52.844Z,9.65
2019-05-02T23:42:22.428Z,12.43
2019-05-02T23:44:52.029Z,10.03
2019-05-02T23:47:22.433Z,12.23
2019-05-02T23:49:53.237Z,10.50
2019-05-02T23:52:22.815Z,10.63
2019-05-02T23:54:53.019Z,10.75
2019-05-02T23:57:22.926Z,11.45
2019-05-02T23:59:52.675Z,14.58
